Time;durP1;ratioP1;P1;durP2;ratioP2;P2;SDS_P1;SDS_P2;PMS_P1;PMS_P2;Temp;Humidity;BMP_temperature;BMP_pressure;BME280_temperature;BME280_humidity;BME280_pressure;Samples;Min_cycle;Max_cycle;Signal;HPM_P1;HPM_P2
2023/05/11 00:00:09;;;;;;;16.08;6.60;;;12.40;86.40;;;;;;5004217;28;20064;-83
2023/05/11 00:02:34;;;;;;;19.38;7.55;;;12.40;86.40;;;;;;5002686;28;20038;-82
2023/05/11 00:05:00;;;;;;;27.20;7.03;;;12.40;86.50;;;;;;5001779;28;20029;-83
2023/05/11 00:07:26;;;;;;;19.00;7.32;;;12.30;86.40;;;;;;5004138;28;20458;-82
2023/05/11 00:09:52;;;;;;;21.65;7.00;;;12.30;86.60;;;;;;4987606;28;20072;-83
2023/05/11 00:12:19;;;;;;;18.50;7.88;;;12.30;86.70;;;;;;4984710;28;20088;-82
2023/05/11 00:14:45;;;;;;;18.63;7.10;;;12.40;86.80;;;;;;5005476;28;20037;-82
2023/05/11 00:17:11;;;;;;;16.95;6.78;;;12.30;86.80;;;;;;5000197;28;20038;-82
2023/05/11 00:19:37;;;;;;;20.00;7.10;;;12.30;86.80;;;;;;5002282;28;20033;-81
2023/05/11 00:22:03;;;;;;;19.05;6.85;;;12.30;86.90;;;;;;5004928;28;20073;-84
2023/05/11 00:24:28;;;;;;;18.63;7.10;;;12.30;87.00;;;;;;4999362;28;20053;-83
2023/05/11 00:26:54;;;;;;;18.77;7.30;;;12.30;87.00;;;;;;5005195;28;20049;-83
2023/05/11 00:29:20;;;;;;;15.85;6.90;;;12.30;87.00;;;;;;5006227;28;20053;-82
2023/05/11 00:31:46;;;;;;;19.75;7.38;;;12.20;86.90;;;;;;4997463;28;20485;-84
2023/05/11 00:34:17;;;;;;;17.98;7.78;;;12.30;87.00;;;;;;5004834;28;20022;-87
2023/05/11 00:36:44;;;;;;;16.90;7.60;;;12.20;87.00;;;;;;5003101;28;20065;-82
2023/05/11 00:39:10;;;;;;;18.45;7.45;;;12.20;87.00;;;;;;5003021;28;20029;-84
2023/05/11 00:41:36;;;;;;;21.73;7.75;;;12.20;87.10;;;;;;5001997;28;20046;-82
2023/05/11 00:44:02;;;;;;;17.58;7.32;;;12.20;87.00;;;;;;5004698;28;20498;-81
2023/05/11 00:46:28;;;;;;;16.30;7.85;;;12.20;87.00;;;;;;5003216;28;20034;-81
2023/05/11 00:48:54;;;;;;;20.67;7.70;;;12.20;87.10;;;;;;5004980;28;20037;-84
2023/05/11 00:51:23;;;;;;;22.48;8.48;;;12.20;87.10;;;;;;5003126;28;20125;-82
2023/05/11 00:53:49;;;;;;;21.75;7.88;;;12.20;87.10;;;;;;5004486;28;20613;-84
2023/05/11 00:56:15;;;;;;;25.33;7.88;;;12.20;87.20;;;;;;5005427;28;20454;-84
2023/05/11 00:58:41;;;;;;;24.85;8.60;;;12.20;87.20;;;;;;5006032;28;20034;-81
2023/05/11 01:01:07;;;;;;;19.52;8.82;;;12.20;87.20;;;;;;4997218;28;20488;-82
2023/05/11 01:03:34;;;;;;;17.88;7.65;;;12.10;87.20;;;;;;5002956;28;20029;-84
2023/05/11 01:06:28;;;;;;;21.10;8.35;;;12.10;87.30;;;;;;5003116;28;20018;-82
2023/05/11 01:09:05;;;;;;;20.50;7.60;;;12.10;87.30;;;;;;4991220;28;20034;-83
2023/05/11 01:11:42;;;;;;;19.52;8.30;;;12.10;87.40;;;;;;5004021;28;20376;-82
2023/05/11 01:14:11;;;;;;;18.75;8.73;;;12.10;87.50;;;;;;5000961;28;20136;-82
2023/05/11 01:16:40;;;;;;;20.17;8.27;;;12.10;87.40;;;;;;5000736;28;20042;-82
2023/05/11 01:19:11;;;;;;;23.60;8.68;;;12.10;87.50;;;;;;4983924;28;20329;-82
2023/05/11 01:21:39;;;;;;;23.00;8.80;;;12.10;87.50;;;;;;4998452;28;20454;-82
2023/05/11 01:24:55;;;;;;;20.85;8.25;;;12.10;87.50;;;;;;5005624;28;20018;-82
2023/05/11 01:27:40;;;;;;;22.17;8.93;;;12.10;87.50;;;;;;4955224;28;20054;-82
2023/05/11 01:30:27;;;;;;;24.58;9.15;;;12.10;87.60;;;;;;4998390;28;20454;-85
2023/05/11 01:32:57;;;;;;;20.27;8.35;;;12.10;87.50;;;;;;5005146;28;20053;-84
2023/05/11 01:35:25;;;;;;;19.95;8.75;;;12.00;87.50;;;;;;5005092;28;20430;-83
2023/05/11 01:37:56;;;;;;;21.77;9.13;;;12.00;87.60;;;;;;5008121;28;20030;-83
2023/05/11 01:40:25;;;;;;;16.60;8.75;;;11.90;87.70;;;;;;5007463;28;20109;-82
2023/05/11 01:43:00;;;;;;;22.73;8.98;;;11.90;87.70;;;;;;5005846;28;20022;-85
2023/05/11 01:45:28;;;;;;;22.90;9.18;;;11.90;87.80;;;;;;5004083;28;20032;-88
2023/05/11 01:47:56;;;;;;;22.92;9.48;;;11.80;87.80;;;;;;5005496;28;20137;-84
2023/05/11 01:50:24;;;;;;;21.92;9.55;;;11.80;87.90;;;;;;5004824;28;20580;-81
2023/05/11 01:52:51;;;;;;;21.10;8.95;;;11.90;87.90;;;;;;5007996;28;20026;-83
2023/05/11 01:55:20;;;;;;;18.70;9.85;;;11.80;88.00;;;;;;5004561;28;20045;-84
2023/05/11 01:57:48;;;;;;;21.25;9.52;;;11.80;88.10;;;;;;5005413;28;20495;-83
2023/05/11 02:00:16;;;;;;;20.15;10.43;;;11.80;88.10;;;;;;5007214;28;20065;-83
2023/05/11 02:02:43;;;;;;;21.67;9.75;;;11.80;88.20;;;;;;5003625;28;20381;-84
2023/05/11 02:05:10;;;;;;;22.80;10.30;;;11.80;88.30;;;;;;5006140;28;20037;-82
2023/05/11 02:07:41;;;;;;;25.80;10.60;;;11.80;88.30;;;;;;5004178;28;20045;-83
2023/05/11 02:10:09;;;;;;;20.92;10.32;;;11.80;88.30;;;;;;5002885;28;20470;-82
2023/05/11 02:12:36;;;;;;;24.80;10.43;;;11.80;88.40;;;;;;5003022;28;20018;-83
2023/05/11 02:15:03;;;;;;;22.98;10.65;;;11.90;88.40;;;;;;5006855;28;20059;-83
2023/05/11 02:17:31;;;;;;;21.80;10.18;;;11.80;88.40;;;;;;5005989;28;20033;-82
2023/05/11 02:19:59;;;;;;;25.33;11.02;;;11.80;88.30;;;;;;5007410;28;20025;-82
2023/05/11 02:22:25;;;;;;;21.98;10.15;;;11.80;88.30;;;;;;5006031;28;20648;-82
2023/05/11 02:24:51;;;;;;;21.75;10.20;;;11.80;88.30;;;;;;4988147;28;20028;-82
2023/05/11 02:27:16;;;;;;;24.45;10.43;;;11.80;88.30;;;;;;5005300;28;20042;-85
2023/05/11 02:29:42;;;;;;;23.05;10.35;;;11.80;88.40;;;;;;5006887;28;20026;-83
2023/05/11 02:32:15;;;;;;;20.38;10.50;;;11.80;88.50;;;;;;5004890;28;20037;-83
2023/05/11 02:34:44;;;;;;;20.80;10.18;;;11.80;88.50;;;;;;5004950;28;20105;-83
2023/05/11 02:37:14;;;;;;;23.15;10.30;;;11.80;88.60;;;;;;5004644;28;20390;-82
2023/05/11 02:39:43;;;;;;;29.50;11.05;;;11.90;88.70;;;;;;5004442;28;20388;-83
2023/05/11 02:42:14;;;;;;;21.58;9.23;;;11.90;88.80;;;;;;5003176;28;20053;-82
2023/05/11 02:44:44;;;;;;;23.05;9.30;;;12.00;88.80;;;;;;4989664;28;20046;-81
2023/05/11 02:47:13;;;;;;;25.08;11.25;;;12.00;88.80;;;;;;4996903;28;20034;-82
2023/05/11 02:49:41;;;;;;;27.17;9.57;;;12.00;88.80;;;;;;4985055;28;20124;-82
2023/05/11 02:52:08;;;;;;;25.00;10.02;;;12.10;88.80;;;;;;5004861;28;20034;-82
2023/05/11 02:54:36;;;;;;;22.90;9.80;;;12.10;88.80;;;;;;5006225;28;20927;-82
2023/05/11 02:57:02;;;;;;;20.95;9.77;;;12.10;88.80;;;;;;4988183;28;20034;-83
2023/05/11 02:59:29;;;;;;;21.10;8.82;;;12.10;88.90;;;;;;5001938;28;20593;-82
2023/05/11 03:01:55;;;;;;;30.40;10.55;;;12.20;88.90;;;;;;5005571;28;20030;-83
2023/05/11 03:04:21;;;;;;;24.08;9.85;;;12.20;88.80;;;;;;5004211;28;20293;-84
2023/05/11 03:06:47;;;;;;;22.58;9.75;;;12.20;88.80;;;;;;5004410;28;20032;-82
2023/05/11 03:09:13;;;;;;;29.80;11.60;;;12.20;88.90;;;;;;5006213;28;20034;-88
2023/05/11 03:11:40;;;;;;;25.02;11.15;;;12.30;88.90;;;;;;5010234;28;20041;-82
2023/05/11 03:14:06;;;;;;;25.05;11.20;;;12.30;88.90;;;;;;5008080;28;20101;-83
2023/05/11 03:16:33;;;;;;;26.50;11.93;;;12.30;89.00;;;;;;5003656;28;20117;-85
2023/05/11 03:19:00;;;;;;;25.80;12.43;;;12.30;89.00;;;;;;5006431;28;20044;-84
2023/05/11 03:21:27;;;;;;;28.48;12.55;;;12.30;89.00;;;;;;5003073;28;20108;-83
2023/05/11 03:23:53;;;;;;;28.20;12.55;;;12.30;88.90;;;;;;4989640;28;20018;-83
2023/05/11 03:26:20;;;;;;;19.90;10.93;;;12.30;89.00;;;;;;5003216;28;20045;-82
2023/05/11 03:28:47;;;;;;;24.30;11.20;;;12.30;89.00;;;;;;5003209;28;20042;-83
2023/05/11 03:31:13;;;;;;;24.55;11.80;;;12.40;89.00;;;;;;5001221;28;20034;-86
2023/05/11 03:33:39;;;;;;;26.45;12.25;;;12.40;89.10;;;;;;4990663;28;20034;-84
2023/05/11 03:36:07;;;;;;;29.42;12.50;;;12.40;89.10;;;;;;5005677;28;20157;-82
2023/05/11 03:38:34;;;;;;;32.92;13.02;;;12.40;89.10;;;;;;5004154;28;20582;-83
2023/05/11 03:41:00;;;;;;;26.70;13.00;;;12.40;89.10;;;;;;5002524;28;20134;-82
2023/05/11 03:43:29;;;;;;;26.90;13.07;;;12.50;89.00;;;;;;4983036;28;20156;-86
2023/05/11 03:45:56;;;;;;;32.25;13.82;;;12.50;88.90;;;;;;4983736;28;20091;-84
2023/05/11 03:48:22;;;;;;;29.40;13.82;;;12.50;88.90;;;;;;5000404;28;20030;-83
2023/05/11 03:50:48;;;;;;;25.77;13.02;;;12.50;89.00;;;;;;4987392;28;20076;-83
2023/05/11 03:53:15;;;;;;;23.40;12.18;;;12.50;88.90;;;;;;4987076;28;20132;-83
2023/05/11 03:55:41;;;;;;;29.77;13.48;;;12.50;89.00;;;;;;5004805;28;20136;-83
2023/05/11 03:58:07;;;;;;;29.70;13.02;;;12.50;89.00;;;;;;5004401;28;20456;-83
2023/05/11 04:00:38;;;;;;;27.25;13.18;;;12.50;89.00;;;;;;4984773;28;20159;-83
2023/05/11 04:03:05;;;;;;;29.25;13.48;;;12.50;88.90;;;;;;5001856;28;20455;-83
2023/05/11 04:05:31;;;;;;;27.17;12.95;;;12.60;89.00;;;;;;5004726;28;20477;-83
2023/05/11 04:07:57;;;;;;;23.38;12.60;;;12.60;88.90;;;;;;5004283;28;20050;-83
2023/05/11 04:10:22;;;;;;;31.40;14.00;;;12.60;88.90;;;;;;4981222;28;20304;-83
2023/05/11 04:12:48;;;;;;;30.25;13.45;;;12.60;89.00;;;;;;4985075;28;20034;-82
2023/05/11 04:15:14;;;;;;;28.13;13.48;;;12.60;89.00;;;;;;5005421;28;20029;-84
2023/05/11 04:17:40;;;;;;;32.50;15.13;;;12.60;89.10;;;;;;4985962;28;20042;-83
2023/05/11 04:20:06;;;;;;;24.85;14.93;;;12.60;89.00;;;;;;5002710;28;20025;-83
2023/05/11 04:22:32;;;;;;;31.45;14.60;;;12.60;89.10;;;;;;5004299;28;20080;-85
2023/05/11 04:24:57;;;;;;;30.92;15.55;;;12.60;88.90;;;;;;5005594;28;20038;-83
2023/05/11 04:27:23;;;;;;;28.65;15.73;;;12.60;89.00;;;;;;4999574;28;20060;-83
2023/05/11 04:29:49;;;;;;;21.63;14.10;;;12.60;89.00;;;;;;5003196;28;20101;-84
2023/05/11 04:32:15;;;;;;;33.50;16.17;;;12.60;89.10;;;;;;4999696;28;20478;-83
2023/05/11 04:34:41;;;;;;;29.45;15.60;;;12.70;89.10;;;;;;5005030;28;20021;-84
2023/05/11 04:37:06;;;;;;;27.67;15.73;;;12.70;89.00;;;;;;5003533;28;20045;-83
2023/05/11 04:39:33;;;;;;;38.88;17.90;;;12.70;89.00;;;;;;5002549;28;20058;-82
2023/05/11 04:42:00;;;;;;;35.20;16.20;;;12.80;89.00;;;;;;5002761;28;20034;-83
2023/05/11 04:44:26;;;;;;;30.65;15.75;;;12.70;89.00;;;;;;5001844;28;20084;-84
2023/05/11 04:46:55;;;;;;;30.08;16.52;;;12.70;89.00;;;;;;4997516;28;20026;-85
2023/05/11 04:49:21;;;;;;;28.80;16.13;;;12.80;88.90;;;;;;5003196;28;20030;-84
2023/05/11 04:51:47;;;;;;;27.75;15.30;;;12.80;88.80;;;;;;5002476;28;20042;-82
2023/05/11 04:54:13;;;;;;;29.00;15.68;;;12.80;88.80;;;;;;5004322;28;20014;-87
2023/05/11 04:56:39;;;;;;;29.90;16.00;;;12.80;88.70;;;;;;4997702;28;20290;-83
2023/05/11 04:59:06;;;;;;;29.10;15.57;;;12.80;88.80;;;;;;5005911;28;20018;-82
2023/05/11 05:01:32;;;;;;;30.00;15.60;;;12.90;88.90;;;;;;5000618;28;20042;-81
2023/05/11 05:03:57;;;;;;;30.08;15.15;;;13.00;88.90;;;;;;4995797;28;20026;-83
2023/05/11 05:06:23;;;;;;;30.23;15.50;;;13.00;88.80;;;;;;5006071;28;20031;-83
2023/05/11 05:08:49;;;;;;;36.38;15.82;;;13.00;88.70;;;;;;4991210;28;20508;-84
2023/05/11 05:11:14;;;;;;;30.05;14.95;;;13.10;88.40;;;;;;4990344;28;20037;-83
2023/05/11 05:13:40;;;;;;;27.85;14.50;;;13.10;88.40;;;;;;5007972;28;20124;-82
2023/05/11 05:16:06;;;;;;;34.90;17.42;;;13.10;88.30;;;;;;5003793;28;20481;-84
2023/05/11 05:18:32;;;;;;;30.73;16.00;;;13.10;88.20;;;;;;4990730;28;20116;-84
2023/05/11 05:20:58;;;;;;;26.45;16.27;;;13.10;88.30;;;;;;4987983;28;20022;-83
2023/05/11 05:23:24;;;;;;;27.10;15.65;;;13.10;88.30;;;;;;5004105;28;20405;-85
2023/05/11 05:25:50;;;;;;;26.17;15.40;;;13.10;88.20;;;;;;5005420;28;20025;-83
2023/05/11 05:28:15;;;;;;;26.75;16.23;;;13.10;88.30;;;;;;5001914;28;20053;-83
2023/05/11 05:30:41;;;;;;;31.77;15.57;;;13.10;88.20;;;;;;5000065;28;20042;-83
2023/05/11 05:33:06;;;;;;;28.52;16.13;;;13.20;88.20;;;;;;5004604;28;20085;-82
2023/05/11 05:35:32;;;;;;;29.98;16.92;;;13.20;88.30;;;;;;4981878;28;20018;-82
2023/05/11 05:37:58;;;;;;;27.35;17.85;;;13.30;88.10;;;;;;5002371;28;20061;-82
2023/05/11 05:40:23;;;;;;;31.77;16.73;;;13.30;88.00;;;;;;4989255;28;20033;-83
2023/05/11 05:42:49;;;;;;;36.70;17.25;;;13.30;87.70;;;;;;4987726;28;20153;-81
2023/05/11 05:45:15;;;;;;;36.40;18.20;;;13.30;87.80;;;;;;5004726;28;20076;-82
2023/05/11 05:47:40;;;;;;;32.90;18.50;;;13.40;87.60;;;;;;4987725;28;20246;-83
2023/05/11 05:50:07;;;;;;;35.35;18.95;;;13.40;87.60;;;;;;5006804;28;20487;-83
2023/05/11 05:52:32;;;;;;;37.47;18.65;;;13.40;87.60;;;;;;5004464;28;20033;-83
2023/05/11 05:54:58;;;;;;;39.65;20.38;;;13.40;87.50;;;;;;5004777;28;20018;-82
2023/05/11 05:57:24;;;;;;;40.45;20.02;;;13.40;87.60;;;;;;5002236;28;20376;-83
2023/05/11 05:59:49;;;;;;;42.63;20.40;;;13.50;87.50;;;;;;4983937;28;20042;-80
2023/05/11 06:02:15;;;;;;;36.10;19.92;;;13.60;87.30;;;;;;4999971;28;20181;-80
2023/05/11 06:04:42;;;;;;;45.47;20.60;;;13.60;87.30;;;;;;5001571;28;20030;-80
2023/05/11 06:07:08;;;;;;;35.25;19.90;;;13.60;87.10;;;;;;5008587;28;20026;-81
2023/05/11 06:09:33;;;;;;;39.20;21.23;;;13.60;87.30;;;;;;4986219;28;20421;-81
2023/05/11 06:11:59;;;;;;;37.42;20.65;;;13.70;87.30;;;;;;5006326;28;20041;-82
2023/05/11 06:14:25;;;;;;;38.15;21.58;;;13.70;86.90;;;;;;5004676;28;20029;-81
2023/05/11 06:16:52;;;;;;;34.83;20.30;;;13.70;86.40;;;;;;5004814;28;20034;-81
2023/05/11 06:19:17;;;;;;;44.25;21.67;;;13.80;86.80;;;;;;4986513;28;20026;-82
2023/05/11 06:21:44;;;;;;;40.38;20.73;;;13.80;86.60;;;;;;5002114;28;20343;-81
2023/05/11 06:24:11;;;;;;;38.45;20.50;;;13.80;86.70;;;;;;4997800;28;20049;-81
2023/05/11 06:26:36;;;;;;;42.65;22.35;;;14.00;86.60;;;;;;5002922;28;20034;-81
2023/05/11 06:29:02;;;;;;;43.50;23.20;;;14.10;86.20;;;;;;5003956;28;20084;-81
2023/05/11 06:31:28;;;;;;;43.65;23.35;;;14.10;86.10;;;;;;5000274;28;20057;-81
2023/05/11 06:33:54;;;;;;;39.67;22.48;;;14.20;85.60;;;;;;5001886;28;20022;-81
2023/05/11 06:36:19;;;;;;;38.67;21.80;;;14.20;85.20;;;;;;5001821;28;20133;-82
2023/05/11 06:38:45;;;;;;;39.97;21.95;;;14.20;85.10;;;;;;4998633;28;20421;-81
2023/05/11 06:41:11;;;;;;;34.13;21.50;;;14.20;84.90;;;;;;4984718;28;20682;-82
2023/05/11 06:43:37;;;;;;;39.47;23.38;;;14.10;85.20;;;;;;5000658;28;20032;-82
2023/05/11 06:46:03;;;;;;;41.40;24.55;;;14.10;85.40;;;;;;5002147;28;20471;-82
2023/05/11 06:48:29;;;;;;;43.88;24.30;;;14.10;85.70;;;;;;5004273;28;20030;-82
2023/05/11 06:50:55;;;;;;;43.40;23.52;;;14.00;85.20;;;;;;4984628;28;20471;-82
2023/05/11 06:53:21;;;;;;;42.95;24.40;;;14.00;85.20;;;;;;4996428;28;20054;-82
2023/05/11 06:55:47;;;;;;;37.58;23.88;;;13.90;85.30;;;;;;5000106;28;20103;-82
2023/05/11 06:58:13;;;;;;;42.33;25.10;;;13.90;85.70;;;;;;5004953;28;20034;-82
2023/05/11 07:00:39;;;;;;;39.72;26.13;;;14.00;85.80;;;;;;5002554;28;20053;-82
2023/05/11 07:03:05;;;;;;;43.80;26.70;;;14.00;85.60;;;;;;5000126;28;20467;-82
2023/05/11 07:05:31;;;;;;;40.80;25.75;;;14.00;85.40;;;;;;5002656;28;20359;-81
2023/05/11 07:07:57;;;;;;;41.97;26.67;;;14.00;85.50;;;;;;5004329;28;20037;-82
2023/05/11 07:10:22;;;;;;;44.30;26.50;;;14.10;85.50;;;;;;4988841;28;20107;-82
2023/05/11 07:12:48;;;;;;;40.47;24.55;;;14.10;84.90;;;;;;4999755;28;20045;-83
2023/05/11 07:15:14;;;;;;;41.65;26.05;;;14.10;85.30;;;;;;5004190;28;20093;-82
2023/05/11 07:17:40;;;;;;;41.03;26.00;;;14.10;85.00;;;;;;5005850;28;20188;-83
2023/05/11 07:20:06;;;;;;;38.08;25.30;;;14.20;85.00;;;;;;5008213;28;20052;-82
2023/05/11 07:22:32;;;;;;;39.95;27.70;;;14.40;85.00;;;;;;5002118;28;20029;-83
2023/05/11 07:24:59;;;;;;;38.33;25.67;;;14.50;84.50;;;;;;5004936;28;20022;-82
2023/05/11 07:27:25;;;;;;;38.00;25.60;;;14.60;83.60;;;;;;5002451;28;20033;-82
2023/05/11 07:29:51;;;;;;;43.53;27.13;;;14.70;83.50;;;;;;5003537;28;20029;-83
2023/05/11 07:32:17;;;;;;;41.10;26.15;;;14.90;82.90;;;;;;5002650;28;20041;-82
2023/05/11 07:34:43;;;;;;;36.05;24.60;;;15.00;82.20;;;;;;5000807;28;20049;-82
2023/05/11 07:37:09;;;;;;;44.70;27.30;;;15.10;81.90;;;;;;5003217;28;20056;-81
2023/05/11 07:39:35;;;;;;;42.97;26.45;;;14.90;81.40;;;;;;5004637;28;20065;-81
2023/05/11 07:42:00;;;;;;;45.20;25.83;;;14.90;82.10;;;;;;4986359;28;20517;-81
2023/05/11 07:44:26;;;;;;;45.03;26.63;;;14.80;82.40;;;;;;5002912;28;20156;-82
2023/05/11 07:46:53;;;;;;;37.42;24.40;;;14.80;82.50;;;;;;5000314;28;20049;-81
2023/05/11 07:49:19;;;;;;;38.42;26.00;;;14.80;82.10;;;;;;5001733;28;20033;-82
2023/05/11 07:51:45;;;;;;;42.60;28.60;;;14.80;82.40;;;;;;4984427;28;20422;-80
2023/05/11 07:54:11;;;;;;;43.10;26.90;;;14.70;82.30;;;;;;5004868;28;20018;-80
2023/05/11 07:56:36;;;;;;;41.25;29.70;;;14.70;82.60;;;;;;4999558;28;20042;-81
2023/05/11 07:59:02;;;;;;;43.75;28.83;;;14.70;82.80;;;;;;5003532;28;20164;-81
2023/05/11 08:01:28;;;;;;;43.85;29.75;;;14.60;83.50;;;;;;5000681;28;20252;-82
2023/05/11 08:03:53;;;;;;;49.10;30.45;;;14.90;83.50;;;;;;4986333;28;20044;-81
2023/05/11 08:06:19;;;;;;;49.17;32.45;;;15.00;82.80;;;;;;4987746;28;20124;-83
2023/05/11 08:08:45;;;;;;;45.40;32.25;;;15.20;81.70;;;;;;5005184;28;20168;-83
2023/05/11 08:11:11;;;;;;;51.08;32.83;;;15.40;81.10;;;;;;5002940;28;20045;-82
2023/05/11 08:13:36;;;;;;;50.70;32.60;;;15.30;81.00;;;;;;4986864;28;20033;-82
2023/05/11 08:16:02;;;;;;;41.45;30.45;;;15.40;81.00;;;;;;5000313;28;20044;-82
2023/05/11 08:18:28;;;;;;;45.25;30.92;;;15.60;81.00;;;;;;5004319;28;20459;-81
2023/05/11 08:20:54;;;;;;;47.67;31.38;;;15.70;80.20;;;;;;5002326;28;20024;-81
2023/05/11 08:23:19;;;;;;;48.20;32.45;;;15.70;79.40;;;;;;4985369;28;20125;-81
2023/05/11 08:26:04;;;;;;;44.65;31.10;;;16.00;80.10;;;;;;5002675;28;20022;-80
2023/05/11 08:28:30;;;;;;;44.15;31.00;;;16.30;78.40;;;;;;5002322;28;20068;-79
2023/05/11 08:30:57;;;;;;;45.83;31.33;;;16.60;77.40;;;;;;5001226;28;20453;-80
2023/05/11 08:33:23;;;;;;;44.60;31.55;;;16.90;76.60;;;;;;4999675;28;20084;-78
2023/05/11 08:35:49;;;;;;;44.33;30.02;;;17.30;75.80;;;;;;4984113;28;20414;-82
2023/05/11 08:38:17;;;;;;;38.88;28.90;;;17.70;73.80;;;;;;5001936;28;20034;-83
2023/05/11 08:40:46;;;;;;;40.13;28.98;;;17.90;72.20;;;;;;4998932;28;20029;-82
2023/05/11 08:43:17;;;;;;;39.88;27.83;;;17.80;72.50;;;;;;5004225;28;20025;-81
2023/05/11 08:45:47;;;;;;;42.22;28.30;;;17.70;72.90;;;;;;5004002;28;20018;-80
2023/05/11 08:48:16;;;;;;;42.05;28.33;;;17.60;72.40;;;;;;5005947;28;20033;-79
2023/05/11 08:50:43;;;;;;;40.78;28.83;;;17.30;74.10;;;;;;5004740;28;20478;-80
2023/05/11 08:53:09;;;;;;;40.78;27.65;;;16.90;74.60;;;;;;5006188;28;20025;-81
2023/05/11 08:55:37;;;;;;;39.30;28.65;;;16.70;76.00;;;;;;5005761;28;20030;-82
2023/05/11 08:58:05;;;;;;;35.80;26.25;;;16.70;75.80;;;;;;5004186;28;20184;-82
2023/05/11 09:00:35;;;;;;;35.33;25.98;;;16.60;75.70;;;;;;5007291;28;20406;-82
2023/05/11 09:03:03;;;;;;;32.03;25.55;;;16.80;75.90;;;;;;5004074;28;20152;-82
2023/05/11 09:05:30;;;;;;;30.05;22.98;;;17.00;75.00;;;;;;5005564;28;20037;-82
2023/05/11 09:08:00;;;;;;;30.40;22.73;;;17.10;74.00;;;;;;5009123;28;20091;-81
2023/05/11 09:10:26;;;;;;;30.27;23.75;;;17.30;72.60;;;;;;4988049;28;20085;-81
2023/05/11 09:12:52;;;;;;;29.00;23.38;;;17.30;71.70;;;;;;5002058;28;20092;-81
2023/05/11 09:15:18;;;;;;;30.02;22.88;;;17.30;71.90;;;;;;5006568;28;20458;-82
2023/05/11 09:17:44;;;;;;;32.72;26.15;;;17.20;72.30;;;;;;5005599;28;20036;-82
2023/05/11 09:20:10;;;;;;;30.77;24.52;;;17.20;72.80;;;;;;5006517;28;20030;-82
2023/05/11 09:22:45;;;;;;;33.78;24.25;;;17.20;72.80;;;;;;5004694;28;20499;-81
2023/05/11 09:25:12;;;;;;;32.35;23.05;;;17.20;71.50;;;;;;5007075;28;20057;-83
2023/05/11 09:27:42;;;;;;;31.25;25.35;;;17.30;71.10;;;;;;5002689;28;20042;-82
2023/05/11 09:30:13;;;;;;;30.48;23.50;;;17.60;70.80;;;;;;5004710;28;20459;-82
2023/05/11 09:32:46;;;;;;;30.52;24.10;;;17.80;70.30;;;;;;5002316;28;20042;-82
2023/05/11 09:35:27;;;;;;;33.05;24.58;;;18.20;69.90;;;;;;5000489;28;20026;-82
2023/05/11 09:38:10;;;;;;;29.80;23.60;;;18.30;69.00;;;;;;5005566;28;20056;-80
2023/05/11 09:40:38;;;;;;;29.67;23.45;;;18.10;69.60;;;;;;5003122;28;20458;-81
2023/05/11 09:43:16;;;;;;;27.90;21.75;;;18.10;69.30;;;;;;5005931;28;20149;-83
2023/05/11 09:45:44;;;;;;;29.75;20.65;;;18.60;68.60;;;;;;5005675;28;20022;-81
2023/05/11 09:48:30;;;;;;;36.35;26.65;;;18.50;66.80;;;;;;5004255;28;20120;-82
2023/05/11 09:51:02;;;;;;;30.40;25.45;;;18.30;69.20;;;;;;5004952;28;20041;-82
2023/05/11 09:53:36;;;;;;;34.13;23.40;;;18.10;68.90;;;;;;5001776;28;20121;-81
2023/05/11 09:56:03;;;;;;;31.67;21.88;;;17.70;69.50;;;;;;5002289;28;20030;-79
2023/05/11 09:58:47;;;;;;;32.25;20.70;;;17.40;70.90;;;;;;5006310;28;20137;-82
2023/05/11 10:01:13;;;;;;;32.58;24.73;;;17.20;71.30;;;;;;4997550;28;20050;-80
2023/05/11 10:03:52;;;;;;;31.35;23.02;;;16.90;73.20;;;;;;4994159;28;20022;-80
2023/05/11 10:06:18;;;;;;;26.10;20.00;;;16.90;73.40;;;;;;5007825;28;20033;-82
2023/05/11 10:08:45;;;;;;;25.42;19.23;;;16.60;74.20;;;;;;5007887;28;20084;-83
2023/05/11 10:11:11;;;;;;;23.55;17.83;;;16.60;74.00;;;;;;5006958;28;20978;-82
2023/05/11 10:13:38;;;;;;;27.58;19.55;;;16.50;74.60;;;;;;5007186;28;20545;-81
2023/05/11 10:16:05;;;;;;;28.35;20.52;;;16.30;74.10;;;;;;5005572;28;20536;-79
2023/05/11 10:18:32;;;;;;;21.95;17.23;;;16.10;75.60;;;;;;5006245;28;20062;-82
2023/05/11 10:20:58;;;;;;;28.70;20.15;;;16.20;76.00;;;;;;4989125;28;20498;-81
2023/05/11 10:23:27;;;;;;;22.17;15.80;;;16.50;76.80;;;;;;5003295;28;20050;-81
2023/05/11 10:25:53;;;;;;;22.45;13.10;;;16.70;76.20;;;;;;4994304;28;20021;-82
2023/05/11 10:28:21;;;;;;;17.85;12.43;;;16.70;73.60;;;;;;5005464;28;20066;-79
2023/05/11 10:30:47;;;;;;;21.85;14.73;;;16.60;73.50;;;;;;5006719;28;20025;-81
2023/05/11 10:33:13;;;;;;;20.65;11.63;;;16.70;73.80;;;;;;5001591;28;20056;-83
2023/05/11 10:35:39;;;;;;;11.93;6.60;;;16.60;73.40;;;;;;5007698;28;20092;-80
2023/05/11 10:38:08;;;;;;;10.10;6.28;;;16.40;71.90;;;;;;4997471;28;20042;-81
2023/05/11 10:40:40;;;;;;;10.65;6.97;;;16.30;72.50;;;;;;5013944;28;20923;-80
2023/05/11 10:43:37;;;;;;;15.00;9.30;;;16.20;72.70;;;;;;4990360;28;20132;-83
2023/05/11 10:46:40;;;;;;;14.55;9.63;;;16.30;73.40;;;;;;5001461;28;20038;-81
2023/05/11 10:49:42;;;;;;;13.68;7.50;;;16.30;73.70;;;;;;5000833;28;20144;-80
2023/05/11 10:52:27;;;;;;;11.32;6.13;;;16.10;72.90;;;;;;4996703;28;20030;-81
2023/05/11 10:55:12;;;;;;;14.27;7.88;;;16.10;72.90;;;;;;5004834;28;20030;-81
2023/05/11 10:58:11;;;;;;;15.15;9.32;;;16.00;73.60;;;;;;5003252;28;20064;-81
2023/05/11 11:01:08;;;;;;;13.85;8.73;;;15.80;74.60;;;;;;5002577;28;20046;-81
2023/05/11 11:03:34;;;;;;;12.88;8.60;;;15.80;74.80;;;;;;4986167;28;20491;-83
2023/05/11 11:06:01;;;;;;;14.52;8.52;;;15.80;74.60;;;;;;5004438;28;20040;-83
2023/05/11 11:08:27;;;;;;;12.32;7.50;;;15.80;73.80;;;;;;4999744;28;20113;-82
2023/05/11 11:10:55;;;;;;;12.05;7.30;;;15.90;72.80;;;;;;5001706;28;20085;-82
2023/05/11 11:13:23;;;;;;;10.85;6.68;;;16.00;73.30;;;;;;4986409;28;20395;-82
2023/05/11 11:15:54;;;;;;;10.73;5.90;;;16.10;72.00;;;;;;5003821;28;20022;-82
2023/05/11 11:18:22;;;;;;;10.52;5.40;;;16.10;72.60;;;;;;5004504;28;20042;-81
2023/05/11 11:20:52;;;;;;;9.88;5.07;;;16.30;71.80;;;;;;5003715;28;20049;-82
2023/05/11 11:23:43;;;;;;;8.98;4.35;;;16.20;71.00;;;;;;5003235;28;20047;-82
2023/05/11 11:26:17;;;;;;;8.50;4.70;;;16.20;71.20;;;;;;5001081;28;20038;-82
2023/05/11 11:29:06;;;;;;;8.60;4.38;;;16.30;71.40;;;;;;4997615;28;20099;-82
2023/05/11 11:31:33;;;;;;;8.75;4.50;;;16.50;70.90;;;;;;4988837;28;20030;-82
2023/05/11 11:34:27;;;;;;;8.43;4.40;;;16.50;71.10;;;;;;4999748;28;20022;-83
2023/05/11 11:37:05;;;;;;;12.53;6.30;;;16.50;70.70;;;;;;4984804;28;20046;-82
2023/05/11 11:39:43;;;;;;;11.85;6.82;;;16.60;70.30;;;;;;5002685;28;20049;-85
2023/05/11 11:42:13;;;;;;;5.93;3.20;;;16.60;70.70;;;;;;5001265;28;20142;-84
2023/05/11 11:44:40;;;;;;;7.35;4.15;;;16.60;67.50;;;;;;5003724;28;20103;-83
2023/05/11 11:47:09;;;;;;;5.70;2.78;;;16.80;68.10;;;;;;4999602;28;20042;-83
2023/05/11 11:49:36;;;;;;;4.95;2.58;;;16.70;67.00;;;;;;4997195;28;20042;-83
2023/05/11 11:52:03;;;;;;;4.38;2.15;;;16.80;68.40;;;;;;5002783;28;20092;-86
2023/05/11 11:54:43;;;;;;;4.82;2.30;;;16.90;68.50;;;;;;5001301;28;20552;-82
2023/05/11 11:57:34;;;;;;;5.38;2.70;;;17.00;69.20;;;;;;5003551;28;20119;-83
2023/05/11 12:00:10;;;;;;;7.25;3.03;;;16.80;68.30;;;;;;5002921;28;20049;-81
2023/05/11 12:02:44;;;;;;;8.45;3.60;;;16.70;68.80;;;;;;4998716;28;20447;-82
2023/05/11 12:05:13;;;;;;;8.37;4.40;;;16.60;70.00;;;;;;5000797;28;20061;-84
2023/05/11 12:07:43;;;;;;;9.07;3.92;;;16.50;71.70;;;;;;5001995;28;20045;-81
2023/05/11 12:10:12;;;;;;;6.10;3.50;;;16.10;71.80;;;;;;5004089;28;20022;-82
2023/05/11 12:12:38;;;;;;;8.57;4.45;;;16.20;74.00;;;;;;5000050;28;20049;-82
2023/05/11 12:15:05;;;;;;;11.95;6.10;;;16.20;73.40;;;;;;5004670;28;20117;-82
2023/05/11 12:17:33;;;;;;;9.15;6.03;;;16.10;73.50;;;;;;4998861;28;20046;-82
2023/05/11 12:20:15;;;;;;;10.65;5.80;;;16.20;73.70;;;;;;5003991;28;20037;-82
2023/05/11 12:22:42;;;;;;;12.00;7.30;;;16.50;75.30;;;;;;5002861;28;20034;-83
2023/05/11 12:25:10;;;;;;;14.95;8.98;;;16.80;73.80;;;;;;4996194;28;20084;-80
2023/05/11 12:27:53;;;;;;;15.43;9.35;;;16.90;73.20;;;;;;4980226;28;20679;-82
2023/05/11 12:30:23;;;;;;;14.23;8.68;;;16.70;72.30;;;;;;4998285;28;20391;-81
2023/05/11 12:32:50;;;;;;;16.27;9.23;;;16.70;72.90;;;;;;5000935;28;20479;-81
2023/05/11 12:35:28;;;;;;;13.57;8.38;;;17.00;74.50;;;;;;4999522;28;20030;-81
2023/05/11 12:37:55;;;;;;;14.05;8.77;;;17.50;74.30;;;;;;4981655;28;20038;-83